createdAt,value
2023-04-13T00:03:20.585Z,6.68
2023-04-13T00:08:23.949Z,6.61
2023-04-13T00:13:26.641Z,6.45
2023-04-13T00:18:29.252Z,6.35
2023-04-13T00:23:31.928Z,6.30
2023-04-13T00:28:34.582Z,6.15
2023-04-13T00:33:37.267Z,6.00
2023-04-13T00:38:40.586Z,5.78
2023-04-13T00:43:44.896Z,5.70
2023-04-13T00:48:48.267Z,5.59
2023-04-13T00:53:51.650Z,5.71
2023-04-13T00:58:54.032Z,5.75
2023-04-13T01:03:57.249Z,5.77
2023-04-13T01:08:59.790Z,5.83
2023-04-13T01:14:02.307Z,5.80
2023-04-13T01:19:06.020Z,5.82
2023-04-13T01:24:08.301Z,5.78
2023-04-13T01:29:11.211Z,5.66
2023-04-13T01:34:14.411Z,5.58
2023-04-13T01:39:17.372Z,5.62
2023-04-13T01:44:19.758Z,5.60
2023-04-13T01:49:22.730Z,5.55
2023-04-13T01:54:25.576Z,5.53
2023-04-13T01:59:28.647Z,5.52
2023-04-13T02:04:31.877Z,5.52
2023-04-13T02:09:35.218Z,5.49
2023-04-13T02:14:37.512Z,5.50
2023-04-13T02:19:39.996Z,5.55
2023-04-13T02:24:42.416Z,5.50
2023-04-13T02:29:45.724Z,5.45
2023-04-13T02:34:49.487Z,5.46
2023-04-13T02:39:52.741Z,5.36
2023-04-13T02:44:55.478Z,5.42
2023-04-13T02:49:58.080Z,5.33
2023-04-13T02:55:01.140Z,5.36
2023-04-13T03:00:10.081Z,5.32
2023-04-13T03:05:12.831Z,5.28
2023-04-13T03:10:16.089Z,5.29
2023-04-13T03:15:18.927Z,5.24
2023-04-13T03:20:23.782Z,5.21
2023-04-13T03:25:26.515Z,5.23
2023-04-13T03:30:38.871Z,5.17
2023-04-13T03:35:41.182Z,5.10
2023-04-13T03:40:44.238Z,5.10
2023-04-13T03:45:46.596Z,5.09
2023-04-13T03:50:49.056Z,5.07
2023-04-13T03:55:51.865Z,5.03
2023-04-13T04:00:55.054Z,5.01
2023-04-13T04:05:57.742Z,4.95
2023-04-13T04:11:00.877Z,4.95
2023-04-13T04:16:07.003Z,4.89
2023-04-13T04:21:11.197Z,4.85
2023-04-13T04:26:14.936Z,4.82
2023-04-13T04:31:18.182Z,4.74
2023-04-13T04:36:21.477Z,4.71
2023-04-13T04:41:37.973Z,4.67
2023-04-13T04:46:41.826Z,4.66
2023-04-13T04:51:44.483Z,4.67
2023-04-13T04:56:58.018Z,4.68
2023-04-13T05:02:01.237Z,4.73
2023-04-13T05:07:04.391Z,4.73
2023-04-13T05:12:07.477Z,4.82
2023-04-13T05:17:10.813Z,4.89
2023-04-13T05:22:14.597Z,4.93
2023-04-13T05:27:17.423Z,5.01
2023-04-13T05:32:20.966Z,5.02
2023-04-13T05:37:24.243Z,5.14
2023-04-13T05:42:26.970Z,5.14
2023-04-13T05:47:29.850Z,5.22
2023-04-13T05:52:32.701Z,5.36
2023-04-13T05:57:34.987Z,5.38
2023-04-13T06:02:40.264Z,5.57
2023-04-13T06:07:44.851Z,5.46
2023-04-13T06:12:48.872Z,5.53
2023-04-13T06:17:52.082Z,5.53
2023-04-13T06:22:54.829Z,5.62
2023-04-13T06:27:57.316Z,5.85
2023-04-13T06:32:59.804Z,6.07
2023-04-13T06:38:02.628Z,6.30
2023-04-13T06:43:08.975Z,6.53
2023-04-13T06:48:17.188Z,6.65
2023-04-13T06:53:19.591Z,6.34
2023-04-13T06:58:23.176Z,6.76
2023-04-13T07:03:26.341Z,6.88
2023-04-13T07:08:33.416Z,7.13
2023-04-13T07:13:35.972Z,7.56
2023-04-13T07:18:38.465Z,7.37
2023-04-13T07:23:42.479Z,7.88
2023-04-13T07:28:45.275Z,8.08
2023-04-13T07:33:47.731Z,8.44
2023-04-13T07:38:50.322Z,8.49
2023-04-13T07:43:52.826Z,8.66
2023-04-13T07:48:55.473Z,8.61
2023-04-13T07:53:58.161Z,8.44
2023-04-13T07:59:01.173Z,8.69
2023-04-13T08:04:04.194Z,8.96
2023-04-13T08:09:08.040Z,9.26
2023-04-13T08:14:11.850Z,9.64
2023-04-13T08:19:14.424Z,9.29
2023-04-13T08:24:16.955Z,9.04
2023-04-13T08:29:24.312Z,9.25
2023-04-13T08:34:27.452Z,9.01
2023-04-13T08:39:30.059Z,9.16
2023-04-13T08:44:32.532Z,9.82
2023-04-13T08:49:35.858Z,9.60
2023-04-13T08:54:38.228Z,9.66
2023-04-13T08:59:42.246Z,9.86
2023-04-13T09:04:46.145Z,9.75
2023-04-13T09:09:48.990Z,10.05
2023-04-13T09:14:51.477Z,9.52
2023-04-13T09:19:54.387Z,9.83
2023-04-13T09:24:57.075Z,10.28
2023-04-13T09:30:01.491Z,10.71
2023-04-13T09:35:05.590Z,11.20
2023-04-13T09:40:09.874Z,11.36
2023-04-13T09:45:12.294Z,11.79
2023-04-13T09:50:15.527Z,12.01
2023-04-13T09:55:18.802Z,12.48
2023-04-13T10:00:22.003Z,12.29
2023-04-13T10:05:28.928Z,12.27
2023-04-13T10:10:31.579Z,12.47
2023-04-13T10:15:33.907Z,11.94
2023-04-13T10:20:37.145Z,11.84
2023-04-13T10:25:41.435Z,12.29
2023-04-13T10:30:43.759Z,12.26
2023-04-13T10:35:46.939Z,12.31
2023-04-13T10:40:50.352Z,11.69
2023-04-13T10:45:54.430Z,10.65
2023-04-13T10:50:57.133Z,10.89
2023-04-13T10:55:59.587Z,10.85
2023-04-13T11:01:03.252Z,11.24
2023-04-13T11:06:05.614Z,11.15
2023-04-13T11:16:17.597Z,11.25
2023-04-13T11:21:19.950Z,10.42
2023-04-13T11:26:24.833Z,10.73
2023-04-13T11:31:27.638Z,10.40
2023-04-13T11:36:32.256Z,10.78
2023-04-13T11:41:35.055Z,10.62
2023-04-13T11:46:37.909Z,10.65
2023-04-13T11:51:40.424Z,11.01
2023-04-13T11:56:42.875Z,10.49
2023-04-13T12:01:50.387Z,10.69
2023-04-13T12:06:56.192Z,10.36
2023-04-13T12:12:20.480Z,10.33
2023-04-13T12:22:27.332Z,10.22
2023-04-13T12:27:30.184Z,10.15
2023-04-13T12:32:32.538Z,9.93
2023-04-13T12:37:35.068Z,10.00
2023-04-13T12:42:37.728Z,9.95
2023-04-13T12:47:40.455Z,9.51
2023-04-13T12:52:42.825Z,9.27
2023-04-13T12:57:45.714Z,9.05
2023-04-13T13:02:52.159Z,8.71
2023-04-13T13:07:58.780Z,8.64
2023-04-13T13:13:03.805Z,8.42
2023-04-13T13:18:08.049Z,8.37
2023-04-13T13:23:10.433Z,8.13
2023-04-13T13:28:15.223Z,8.08
2023-04-13T13:33:18.075Z,8.24
2023-04-13T13:38:21.001Z,8.75
2023-04-13T13:43:23.755Z,9.10
2023-04-13T13:48:27.521Z,9.67
2023-04-13T13:53:31.713Z,9.86
2023-04-13T13:58:34.380Z,9.27
2023-04-13T14:03:37.451Z,9.26
2023-04-13T14:08:39.945Z,10.17
2023-04-13T14:13:42.711Z,11.03
2023-04-13T14:18:47.911Z,10.51
2023-04-13T14:23:51.905Z,11.18
2023-04-13T14:28:54.647Z,11.22
2023-04-13T14:33:57.299Z,11.32
2023-04-13T14:39:10.190Z,11.31
2023-04-13T14:44:14.014Z,11.02
2023-04-13T14:49:17.784Z,10.75
2023-04-13T14:54:29.625Z,10.72
2023-04-13T14:59:32.812Z,10.84
2023-04-13T15:04:37.376Z,10.73
2023-04-13T15:09:40.968Z,10.06
2023-04-13T15:14:46.795Z,9.56
2023-04-13T15:19:50.091Z,9.51
2023-04-13T15:24:53.064Z,9.54
2023-04-13T15:29:55.482Z,9.72
2023-04-13T15:34:58.271Z,9.70
2023-04-13T15:40:01.409Z,9.29
2023-04-13T15:45:10.398Z,9.05
2023-04-13T15:50:14.025Z,9.29
2023-04-13T15:55:17.187Z,9.34
2023-04-13T16:00:19.629Z,8.95
2023-04-13T16:05:22.821Z,8.86
2023-04-13T16:10:26.142Z,8.70
2023-04-13T16:15:28.953Z,8.85
2023-04-13T16:20:32.400Z,8.83
2023-04-13T16:25:35.291Z,8.71
2023-04-13T16:30:39.522Z,8.72
2023-04-13T16:35:46.050Z,8.67
2023-04-13T16:40:48.697Z,8.25
2023-04-13T16:45:51.517Z,8.17
2023-04-13T16:50:55.039Z,8.13
2023-04-13T16:55:58.384Z,8.07
2023-04-13T17:01:01.289Z,8.02
2023-04-13T17:06:03.820Z,7.81
2023-04-13T17:11:07.984Z,7.70
2023-04-13T17:16:10.883Z,7.54
2023-04-13T17:21:13.672Z,7.52
2023-04-13T17:26:16.829Z,7.51
2023-04-13T17:31:19.551Z,7.48
2023-04-13T17:36:22.916Z,7.42
2023-04-13T17:41:35.424Z,7.28
2023-04-13T17:46:38.084Z,7.09
2023-04-13T17:51:40.554Z,6.97
2023-04-13T17:56:47.923Z,6.82
2023-04-13T18:01:50.902Z,6.73
2023-04-13T18:06:56.488Z,6.64
2023-04-13T18:11:59.541Z,6.57
2023-04-13T18:17:02.188Z,6.40
2023-04-13T18:22:04.634Z,6.30
2023-04-13T18:27:07.985Z,6.16
2023-04-13T18:32:10.454Z,6.05
2023-04-13T18:37:12.895Z,6.01
2023-04-13T18:42:15.519Z,5.88
2023-04-13T18:47:19.397Z,5.79
2023-04-13T18:52:26.117Z,5.74
2023-04-13T18:57:30.460Z,5.61
2023-04-13T19:02:33.213Z,5.58
2023-04-13T19:07:36.821Z,5.59
2023-04-13T19:12:40.018Z,5.50
2023-04-13T19:17:43.920Z,5.42
2023-04-13T19:22:46.326Z,5.42
2023-04-13T19:27:50.085Z,5.46
2023-04-13T19:32:54.913Z,5.48
2023-04-13T19:37:57.309Z,5.53
2023-04-13T19:43:00.338Z,5.55
2023-04-13T19:48:03.037Z,5.60
2023-04-13T19:53:06.133Z,5.54
2023-04-13T19:58:09.878Z,5.57
2023-04-13T20:03:12.982Z,5.50
2023-04-13T20:08:16.534Z,5.42
2023-04-13T20:13:19.682Z,5.31
2023-04-13T20:18:24.032Z,5.15
2023-04-13T20:23:26.409Z,4.98
2023-04-13T20:28:33.220Z,4.95
2023-04-13T20:33:36.494Z,4.97
2023-04-13T20:38:42.689Z,4.78
2023-04-13T20:43:45.054Z,4.75
2023-04-13T20:48:51.218Z,4.76
2023-04-13T20:53:53.711Z,4.77
2023-04-13T20:58:57.856Z,4.82
2023-04-13T21:04:01.213Z,4.76
2023-04-13T21:09:05.479Z,4.69
2023-04-13T21:14:08.311Z,4.64
2023-04-13T21:19:10.651Z,4.64
2023-04-13T21:24:13.299Z,4.57
2023-04-13T21:29:19.996Z,4.59
2023-04-13T21:34:27.087Z,4.49
2023-04-13T21:39:29.656Z,4.43
2023-04-13T21:44:32.090Z,4.45
2023-04-13T21:49:34.414Z,4.41
2023-04-13T21:54:47.210Z,4.26
2023-04-13T21:59:50.485Z,4.36
2023-04-13T22:04:52.800Z,4.30
2023-04-13T22:09:55.648Z,4.34
2023-04-13T22:14:58.400Z,4.30
2023-04-13T22:20:01.671Z,4.29
2023-04-13T22:25:13.986Z,4.27
2023-04-13T22:30:16.661Z,4.30
2023-04-13T22:35:20.009Z,4.36
2023-04-13T22:40:32.332Z,4.27
2023-04-13T22:45:35.021Z,4.27
2023-04-13T22:50:38.716Z,4.27
2023-04-13T22:55:41.963Z,4.28
2023-04-13T23:00:44.594Z,4.21
2023-04-13T23:05:55.987Z,4.22
2023-04-13T23:10:58.521Z,4.18
2023-04-13T23:16:01.417Z,4.04
2023-04-13T23:21:13.522Z,3.92
2023-04-13T23:26:15.827Z,3.84
2023-04-13T23:31:18.189Z,3.82
2023-04-13T23:36:20.972Z,3.75
2023-04-13T23:41:23.653Z,3.82
2023-04-13T23:46:26.025Z,3.77
2023-04-13T23:51:29.345Z,3.80
2023-04-13T23:56:33.698Z,3.81
